Time;durP1;ratioP1;P1;durP2;ratioP2;P2;SDS_P1;SDS_P2;PMS_P1;PMS_P2;Temp;Humidity;BMP_temperature;BMP_pressure;BME280_temperature;BME280_humidity;BME280_pressure;Samples;Min_cycle;Max_cycle;Signal;HPM_P1;HPM_P2
2022/12/09 00:00:08;;;;;;;;;53.25;42.25;;;;;14.23;57.95;98858.22;5026994;28;8859;-78
2022/12/09 00:02:59;;;;;;;;;49.50;39.25;;;;;14.30;57.43;98862.41;5012053;28;8873;-80
2022/12/09 00:05:28;;;;;;;;;57.75;46.75;;;;;14.34;57.08;98861.41;5025863;28;8869;-81
2022/12/09 00:07:57;;;;;;;;;53.00;44.00;;;;;14.36;57.06;98867.47;5008935;28;8953;-81
2022/12/09 00:10:26;;;;;;;;;57.50;48.25;;;;;14.37;56.97;98865.72;5026795;28;8848;-81
2022/12/09 00:12:55;;;;;;;;;63.25;51.00;;;;;14.36;57.10;98862.22;4994831;28;8948;-80
2022/12/09 00:15:24;;;;;;;;;90.00;80.50;;;;;14.30;57.58;98867.63;4994037;28;9038;-82
2022/12/09 00:17:53;;;;;;;;;92.25;79.75;;;;;13.80;59.61;98885.53;5009800;28;11393;-81
2022/12/09 00:20:23;;;;;;;;;94.25;88.00;;;;;12.85;62.12;98891.09;5010507;28;10302;-81
2022/12/09 00:22:51;;;;;;;;;100.50;92.25;;;;;12.38;64.48;98887.63;5012520;28;10557;-79
2022/12/09 00:25:20;;;;;;;;;92.50;84.00;;;;;12.49;64.37;98890.91;5012555;28;10880;-79
2022/12/09 00:27:49;;;;;;;;;79.67;62.33;;;;;12.21;65.02;98887.94;4979545;28;10298;-81
2022/12/09 00:30:18;;;;;;;;;81.50;67.50;;;;;12.01;66.15;98897.00;5027614;28;9358;-79
2022/12/09 00:32:46;;;;;;;;;92.25;79.00;;;;;12.08;66.18;98889.94;5011534;28;9554;-81
2022/12/09 00:35:16;;;;;;;;;86.00;70.50;;;;;12.05;66.13;98890.81;5013589;28;10741;-82
2022/12/09 00:37:46;;;;;;;;;89.50;75.75;;;;;11.88;66.90;98892.84;4996257;28;9800;-81
2022/12/09 00:40:16;;;;;;;;;87.50;73.50;;;;;12.14;66.34;98886.34;5013623;28;10584;-81
2022/12/09 00:42:45;;;;;;;;;86.25;73.00;;;;;12.30;65.43;98890.41;5013516;28;9812;-82
2022/12/09 00:45:14;;;;;;;;;91.00;77.25;;;;;12.39;65.26;98885.00;5048141;28;9889;-83
2022/12/09 00:47:42;;;;;;;;;88.25;77.75;;;;;12.20;66.27;98883.63;5032601;28;9961;-80
2022/12/09 00:50:11;;;;;;;;;94.50;84.25;;;;;12.41;65.79;98884.97;5034281;28;10142;-80
2022/12/09 00:52:40;;;;;;;;;91.75;78.50;;;;;12.70;64.78;98879.16;5031299;28;10259;-78
2022/12/09 00:55:10;;;;;;;;;91.75;80.25;;;;;12.92;64.27;98879.59;5030632;28;10159;-77
2022/12/09 00:57:40;;;;;;;;;91.00;81.25;;;;;13.10;63.38;98875.75;5030732;28;10194;-78
2022/12/09 01:00:10;;;;;;;;;87.25;73.25;;;;;13.27;62.69;98872.75;4995855;28;10167;-81
2022/12/09 01:02:39;;;;;;;;;98.25;85.25;;;;;13.40;61.92;98879.47;5029993;28;10562;-78
2022/12/09 01:05:09;;;;;;;;;86.75;72.75;;;;;13.43;61.74;98886.38;5012161;28;11150;-78
2022/12/09 01:07:37;;;;;;;;;81.00;63.33;;;;;13.47;61.38;98887.19;5014161;28;10249;-80
2022/12/09 01:10:08;;;;;;;;;86.75;75.25;;;;;13.53;61.39;98882.66;5013850;28;9425;-80
2022/12/09 01:12:38;;;;;;;;;90.50;77.75;;;;;13.68;61.29;98885.81;5031242;28;10228;-82
2022/12/09 01:15:09;;;;;;;;;89.50;78.25;;;;;13.75;60.69;98882.16;5046098;28;10106;-81
2022/12/09 01:17:40;;;;;;;;;86.50;73.75;;;;;13.74;60.04;98886.53;5027597;28;9991;-77
2022/12/09 01:20:10;;;;;;;;;82.25;69.75;;;;;13.52;60.84;98874.84;5011628;28;9961;-79
2022/12/09 01:22:39;;;;;;;;;91.25;75.25;;;;;13.55;60.49;98880.00;5010684;28;9983;-79
2022/12/09 01:25:09;;;;;;;;;83.00;66.50;;;;;13.30;61.09;98875.31;4995307;28;9927;-81
2022/12/09 01:27:39;;;;;;;;;87.25;76.00;;;;;13.32;61.62;98878.75;4995775;28;9760;-81
2022/12/09 01:30:12;;;;;;;;;85.00;69.75;;;;;13.49;61.19;98873.16;5028055;28;9973;-81
2022/12/09 01:32:41;;;;;;;;;87.00;72.50;;;;;13.62;60.88;98873.72;5011338;28;9660;-81
2022/12/09 01:35:11;;;;;;;;;91.75;81.50;;;;;13.71;61.27;98863.03;5012021;28;9646;-79
2022/12/09 01:37:40;;;;;;;;;88.25;75.50;;;;;13.83;60.66;98862.72;4977991;28;10059;-80
2022/12/09 01:40:15;;;;;;;;;84.75;70.00;;;;;13.95;60.34;98865.91;5011284;28;9861;-80
2022/12/09 01:42:46;;;;;;;;;83.50;68.00;;;;;13.89;59.94;98859.06;5011033;28;9645;-83
2022/12/09 01:45:42;;;;;;;;;74.25;59.25;;;;;13.99;59.73;98854.50;5011622;28;10413;-78
2022/12/09 01:48:13;;;;;;;;;71.75;56.25;;;;;13.91;59.90;98859.03;5043200;28;8863;-81
2022/12/09 01:50:49;;;;;;;;;69.75;57.00;;;;;13.96;60.18;98850.16;5060939;28;8859;-80
2022/12/09 01:53:19;;;;;;;;;62.50;50.25;;;;;13.98;59.49;98844.88;5029675;28;8851;-81
2022/12/09 01:55:49;;;;;;;;;49.50;41.00;;;;;14.01;59.28;98847.44;5026463;28;8874;-81
2022/12/09 01:58:19;;;;;;;;;46.50;40.50;;;;;14.01;59.61;98855.31;5029009;28;8871;-81
2022/12/09 02:00:49;;;;;;;;;44.00;38.40;;;;;14.03;59.35;98850.88;5012598;28;8863;-79
2022/12/09 02:03:21;;;;;;;;;34.40;32.80;;;;;14.07;59.29;98846.41;5012077;28;8999;-78
2022/12/09 02:05:51;;;;;;;;;40.25;36.50;;;;;14.15;58.95;98834.81;5011333;28;8909;-79
2022/12/09 02:08:20;;;;;;;;;35.25;35.25;;;;;14.24;58.81;98825.84;5008508;28;8886;-81
2022/12/09 02:11:04;;;;;;;;;54.00;44.75;;;;;14.37;58.76;98819.38;5030087;28;8866;-80
2022/12/09 02:13:47;;;;;;;;;50.50;42.50;;;;;14.49;58.27;98818.16;5029776;28;8904;-79
2022/12/09 02:16:21;;;;;;;;;42.00;34.40;;;;;14.45;58.30;98800.78;5047535;28;8846;-80
2022/12/09 02:18:56;;;;;;;;;35.80;34.60;;;;;14.41;58.38;98793.91;5048539;28;8874;-80
2022/12/09 02:21:30;;;;;;;;;29.20;26.60;;;;;14.41;58.43;98796.53;4983483;28;8868;-79
2022/12/09 02:24:07;;;;;;;;;30.60;28.60;;;;;14.43;58.55;98798.19;5029904;28;9754;-79
2022/12/09 02:26:41;;;;;;;;;33.60;30.40;;;;;14.49;58.46;98797.16;5031525;28;8862;-80
2022/12/09 02:29:40;;;;;;;;;29.80;27.00;;;;;14.52;58.40;98797.09;5029053;28;8931;-80
2022/12/09 02:32:32;;;;;;;;;34.80;30.20;;;;;14.57;58.44;98804.84;5027009;28;8963;-79
2022/12/09 02:35:08;;;;;;;;;52.75;41.75;;;;;14.42;58.57;98801.75;5030149;28;8907;-78
2022/12/09 02:37:44;;;;;;;;;46.50;40.00;;;;;14.29;58.73;98800.38;5030103;28;8865;-78
2022/12/09 02:40:19;;;;;;;;;56.00;44.50;;;;;14.42;58.79;98798.25;4994137;28;8868;-82
2022/12/09 02:42:49;;;;;;;;;58.50;46.25;;;;;14.44;58.39;98796.44;5013835;28;8968;-79
2022/12/09 02:45:19;;;;;;;;;58.25;48.25;;;;;14.48;57.85;98791.97;5011727;28;8998;-78
2022/12/09 02:47:55;;;;;;;;;62.50;49.75;;;;;14.43;57.74;98784.22;5027381;28;8863;-82
2022/12/09 02:50:31;;;;;;;;;62.25;51.00;;;;;14.48;57.39;98787.59;5011444;28;8859;-79
2022/12/09 02:53:05;;;;;;;;;59.25;47.50;;;;;14.36;57.81;98795.78;5009327;28;9015;-79
2022/12/09 02:55:36;;;;;;;;;60.00;47.75;;;;;14.42;57.75;98780.75;5026406;28;8914;-79
2022/12/09 02:58:05;;;;;;;;;56.00;45.50;;;;;14.43;57.94;98789.47;5009884;28;8853;-80
2022/12/09 03:00:36;;;;;;;;;48.00;41.25;;;;;14.35;58.05;98783.59;5008951;28;8865;-80
2022/12/09 03:03:08;;;;;;;;;57.50;47.00;;;;;14.22;58.63;98786.56;5026246;28;8845;-80
2022/12/09 03:05:48;;;;;;;;;53.75;43.25;;;;;14.39;58.73;98770.34;5025898;28;8950;-80
2022/12/09 03:08:26;;;;;;;;;48.75;40.50;;;;;14.42;58.30;98767.66;5010073;28;8876;-80
2022/12/09 03:10:58;;;;;;;;;43.75;38.25;;;;;14.48;58.15;98770.97;5026339;28;8869;-79
2022/12/09 03:13:38;;;;;;;;;39.75;35.25;;;;;14.55;58.16;98772.53;5009539;28;8872;-79
2022/12/09 03:16:14;;;;;;;;;37.80;34.20;;;;;14.58;57.74;98765.47;5025965;28;8891;-79
2022/12/09 03:18:47;;;;;;;;;38.80;35.60;;;;;14.53;58.00;98769.94;5025092;28;8974;-79
2022/12/09 03:21:21;;;;;;;;;38.40;34.80;;;;;14.47;57.97;98769.28;5026235;28;9008;-80
2022/12/09 03:23:53;;;;;;;;;34.60;31.80;;;;;14.49;57.83;98775.31;5013923;28;8879;-78
2022/12/09 03:26:27;;;;;;;;;58.75;47.50;;;;;14.42;57.60;98770.28;5027276;28;9585;-78
2022/12/09 03:29:01;;;;;;;;;52.25;41.00;;;;;14.30;58.47;98775.84;5043639;28;8863;-78
2022/12/09 03:31:31;;;;;;;;;46.50;38.75;;;;;13.99;59.32;98770.59;5026921;28;8867;-78
2022/12/09 03:34:04;;;;;;;;;43.75;38.75;;;;;14.02;59.63;98775.75;5009832;28;8870;-81
2022/12/09 03:36:38;;;;;;;;;47.75;41.25;;;;;14.16;59.11;98770.16;5027492;28;8985;-80
2022/12/09 03:39:13;;;;;;;;;57.50;47.25;;;;;14.12;58.39;98761.50;5044321;28;8874;-81
2022/12/09 03:41:45;;;;;;;;;49.33;38.67;;;;;14.28;58.56;98758.44;5043942;28;8844;-80
2022/12/09 03:44:19;;;;;;;;;57.75;44.50;;;;;14.39;58.41;98744.13;4979990;28;8851;-81
2022/12/09 03:46:49;;;;;;;;;42.75;38.25;;;;;14.50;57.86;98743.81;5030295;28;9709;-81
2022/12/09 03:49:18;;;;;;;;;56.50;46.00;;;;;14.48;57.60;98753.50;5010429;28;8847;-81
2022/12/09 03:51:51;;;;;;;;;54.75;45.75;;;;;14.21;58.26;98755.13;4993965;28;8913;-81
2022/12/09 03:54:24;;;;;;;;;37.75;36.50;;;;;14.31;57.59;98750.47;5062632;28;8855;-82
2022/12/09 03:56:56;;;;;;;;;53.25;43.75;;;;;14.47;57.91;98749.13;5031601;28;8877;-80
2022/12/09 03:59:28;;;;;;;;;52.75;44.25;;;;;14.55;58.07;98746.28;5015428;28;8843;-81
2022/12/09 04:01:57;;;;;;;;;55.25;44.50;;;;;14.53;57.56;98758.59;5029672;28;8938;-81
2022/12/09 04:04:27;;;;;;;;;44.50;38.50;;;;;14.59;57.00;98753.19;4996736;28;9012;-83
2022/12/09 04:06:57;;;;;;;;;48.50;39.00;;;;;14.66;57.29;98752.09;5012249;28;8881;-81
2022/12/09 04:09:27;;;;;;;;;54.00;42.25;;;;;14.74;57.02;98747.47;5045825;28;8887;-81
2022/12/09 04:11:55;;;;;;;;;55.25;45.25;;;;;14.70;57.09;98742.38;5013103;28;8869;-80
2022/12/09 04:14:24;;;;;;;;;52.00;43.00;;;;;14.63;57.01;98736.47;5029847;28;8887;-80
2022/12/09 04:16:52;;;;;;;;;37.75;35.00;;;;;14.61;57.24;98743.50;5029110;28;8881;-81
2022/12/09 04:19:21;;;;;;;;;53.75;45.50;;;;;14.67;57.02;98738.09;4981244;28;8853;-78
2022/12/09 04:21:50;;;;;;;;;49.25;38.25;;;;;14.70;56.56;98735.34;5012787;28;8869;-81
2022/12/09 04:24:20;;;;;;;;;43.00;37.00;;;;;14.65;56.92;98734.66;4996319;28;8899;-77
2022/12/09 04:26:49;;;;;;;;;46.50;41.50;;;;;14.55;56.52;98720.91;5031004;28;8862;-82
2022/12/09 04:29:18;;;;;;;;;46.00;40.75;;;;;14.64;56.23;98718.94;4984004;28;8866;-80
2022/12/09 04:31:47;;;;;;;;;40.00;34.40;;;;;14.69;55.97;98717.03;4996254;28;8881;-80
2022/12/09 04:34:16;;;;;;;;;42.40;33.20;;;;;14.68;55.95;98728.44;5029862;28;8877;-77
2022/12/09 04:36:45;;;;;;;;;32.60;32.00;;;;;14.57;55.91;98727.03;5047317;28;8873;-78
2022/12/09 04:39:14;;;;;;;;;24.60;24.00;;;;;14.49;55.94;98730.72;5031051;28;8872;-79
2022/12/09 04:41:43;;;;;;;;;27.80;26.20;;;;;14.28;56.36;98738.31;5048953;28;8842;-80
2022/12/09 04:44:13;;;;;;;;;29.00;25.20;;;;;14.36;56.54;98733.69;5028414;28;8903;-80
2022/12/09 04:46:42;;;;;;;;;26.20;24.00;;;;;14.40;55.95;98729.22;5012145;28;8872;-78
2022/12/09 04:49:10;;;;;;;;;27.40;24.40;;;;;14.54;55.38;98734.09;5012363;28;8865;-77
2022/12/09 04:51:39;;;;;;;;;32.80;31.40;;;;;14.63;55.50;98725.97;4979809;28;8850;-78
2022/12/09 04:54:12;;;;;;;;;49.00;42.00;;;;;14.47;56.14;98720.28;5012037;28;8911;-79
2022/12/09 04:56:41;;;;;;;;;40.60;35.40;;;;;14.49;56.40;98715.00;5028940;28;8975;-80
2022/12/09 04:59:11;;;;;;;;;75.00;60.75;;;;;14.32;56.59;98715.50;5013047;28;8886;-81
2022/12/09 05:01:40;;;;;;;;;11.50;7.75;;;;;14.38;56.30;98723.16;4996458;28;9679;-79
2022/12/09 05:04:09;;;;;;;;;38.60;35.20;;;;;14.48;56.25;98719.38;5016184;28;8867;-80
2022/12/09 05:06:38;;;;;;;;;26.60;24.40;;;;;14.54;55.63;98713.94;4982403;28;8860;-81
2022/12/09 05:09:10;;;;;;;;;26.80;25.00;;;;;14.71;55.29;98713.47;5013258;28;8884;-82
2022/12/09 05:11:39;;;;;;;;;30.40;28.60;;;;;14.70;54.80;98716.97;4980635;28;8886;-80
2022/12/09 05:14:08;;;;;;;;;33.60;30.80;;;;;14.76;54.55;98714.19;4982749;28;8856;-78
2022/12/09 05:16:38;;;;;;;;;152.00;132.00;;;;;14.89;54.23;98716.41;4978634;28;8881;-81
2022/12/09 05:19:08;;;;;;;;;74.50;58.50;;;;;14.98;54.63;98714.34;4961680;28;11662;-82
2022/12/09 05:21:37;;;;;;;;;30.80;28.20;;;;;14.90;54.53;98710.28;4961967;28;8857;-81
2022/12/09 05:24:07;;;;;;;;;35.00;34.25;;;;;15.01;54.93;98716.91;4975721;28;8861;-81
2022/12/09 05:26:36;;;;;;;;;41.75;37.25;;;;;15.01;54.69;98716.91;4947487;28;8877;-81
2022/12/09 05:29:05;;;;;;;;;47.50;37.00;;;;;15.08;54.50;98720.16;4961540;28;8845;-79
2022/12/09 05:31:33;;;;;;;;;37.80;34.80;;;;;15.12;54.28;98729.69;4957786;28;8876;-80
2022/12/09 05:34:04;;;;;;;;;31.60;29.60;;;;;15.10;54.12;98723.59;4973165;28;8869;-80
2022/12/09 05:36:33;;;;;;;;;37.50;34.25;;;;;15.15;54.64;98728.72;4979473;28;8843;-81
2022/12/09 05:39:02;;;;;;;;;26.00;25.00;;;;;15.13;54.24;98730.53;4994395;28;8854;-79
2022/12/09 05:41:31;;;;;;;;;32.20;27.20;;;;;15.16;53.71;98731.31;5016316;28;8935;-81
2022/12/09 05:44:00;;;;;;;;;33.00;31.00;;;;;15.16;54.03;98719.91;4999438;28;8849;-81
2022/12/09 05:46:29;;;;;;;;;39.60;34.00;;;;;15.14;54.23;98725.25;5018164;28;8923;-82
2022/12/09 05:48:58;;;;;;;;;35.20;33.60;;;;;15.20;54.01;98718.94;5017979;28;8867;-81
2022/12/09 05:51:30;;;;;;;;;35.60;32.00;;;;;15.21;54.06;98715.38;5035619;28;8887;-81
2022/12/09 05:54:01;;;;;;;;;27.40;25.80;;;;;15.27;53.78;98717.81;5034525;28;8874;-82
2022/12/09 05:56:30;;;;;;;;;33.60;31.60;;;;;15.29;54.24;98721.25;5032483;28;8890;-77
2022/12/09 05:59:00;;;;;;;;;38.00;33.20;;;;;15.34;53.69;98721.94;5032503;28;8945;-78
2022/12/09 06:01:28;;;;;;;;;32.80;29.40;;;;;15.35;53.52;98723.69;5031566;28;8882;-78
2022/12/09 06:03:57;;;;;;;;;39.75;34.50;;;;;15.39;53.81;98734.94;5032634;28;8870;-80
2022/12/09 06:06:28;;;;;;;;;38.50;33.25;;;;;15.44;53.98;98734.78;5030483;28;8883;-79
2022/12/09 06:09:01;;;;;;;;;40.50;37.00;;;;;15.51;54.18;98725.78;5014539;28;8863;-80
2022/12/09 06:11:31;;;;;;;;;47.75;38.50;;;;;15.56;53.76;98729.13;5047577;28;8875;-79
2022/12/09 06:14:01;;;;;;;;;36.40;34.00;;;;;15.56;53.86;98737.84;5048019;28;8840;-80
2022/12/09 06:16:30;;;;;;;;;35.60;33.40;;;;;15.57;53.40;98725.56;5016695;28;9108;-82
2022/12/09 06:18:59;;;;;;;;;38.60;34.00;;;;;15.59;53.22;98726.38;5016487;28;8878;-81
2022/12/09 06:21:28;;;;;;;;;34.40;33.40;;;;;15.61;53.28;98732.44;5032543;28;9636;-81
2022/12/09 06:23:57;;;;;;;;;33.40;31.00;;;;;15.62;53.44;98733.31;5029852;28;8959;-81
2022/12/09 06:26:30;;;;;;;;;34.40;32.60;;;;;15.67;53.20;98731.38;5047112;28;8865;-81
2022/12/09 06:28:59;;;;;;;;;39.00;35.20;;;;;15.65;53.21;98730.56;5048015;28;8873;-83
2022/12/09 06:31:28;;;;;;;;;37.20;34.20;;;;;15.49;52.94;98731.09;5030102;28;8877;-82
2022/12/09 06:33:58;;;;;;;;;45.25;37.00;;;;;15.38;53.21;98728.81;5046657;28;9631;-80
2022/12/09 06:36:29;;;;;;;;;36.75;33.75;;;;;15.29;53.54;98736.13;5029965;28;9008;-80
2022/12/09 06:38:59;;;;;;;;;33.75;30.25;;;;;15.00;54.79;98733.53;5029332;28;8838;-80
2022/12/09 06:41:40;;;;;;;;;42.25;37.00;;;;;15.07;54.38;98736.84;5028387;28;8865;-83
2022/12/09 06:44:11;;;;;;;;;39.00;36.25;;;;;15.09;54.47;98735.03;5029435;28;8838;-81
2022/12/09 06:46:48;;;;;;;;;55.00;42.75;;;;;14.86;54.91;98733.13;5031320;28;8876;-79
2022/12/09 06:49:18;;;;;;;;;56.75;45.50;;;;;15.13;54.62;98736.66;5029682;28;8916;-84
2022/12/09 06:51:47;;;;;;;;;51.75;42.25;;;;;15.25;53.95;98724.88;5033655;28;9024;-82
2022/12/09 06:54:16;;;;;;;;;49.50;40.50;;;;;15.10;54.67;98728.84;5030681;28;8846;-81
2022/12/09 06:56:46;;;;;;;;;54.50;45.00;;;;;15.14;54.86;98734.88;5029552;28;9599;-83
2022/12/09 06:59:16;;;;;;;;;52.75;44.50;;;;;15.27;54.29;98732.72;5031040;28;8973;-79
2022/12/09 07:01:45;;;;;;;;;54.25;44.75;;;;;15.33;54.58;98732.50;5027825;28;8874;-84
2022/12/09 07:04:15;;;;;;;;;45.00;38.50;;;;;15.39;54.19;98738.44;5037335;28;10027;-83
2022/12/09 07:06:46;;;;;;;;;35.80;31.60;;;;;15.53;53.64;98731.84;5028357;28;8909;-84
2022/12/09 07:09:17;;;;;;;;;30.40;27.60;;;;;15.51;53.69;98731.88;5015056;28;8990;-81
2022/12/09 07:11:49;;;;;;;;;25.20;24.40;;;;;15.62;53.43;98735.94;5029320;28;8852;-83
2022/12/09 07:14:18;;;;;;;;;32.00;32.00;;;;;15.75;53.33;98724.97;5011270;28;8855;-81
2022/12/09 07:16:47;;;;;;;;;31.60;28.60;;;;;15.92;53.37;98719.13;5044064;28;8972;-82
2022/12/09 07:19:17;;;;;;;;;29.20;28.60;;;;;16.05;52.89;98714.28;5027305;28;9678;-81
2022/12/09 07:21:47;;;;;;;;;23.00;21.60;;;;;16.04;52.57;98711.72;5026477;28;8847;-82
2022/12/09 07:24:18;;;;;;;;;21.60;21.00;;;;;16.11;52.57;98707.94;5027882;28;8858;-79
2022/12/09 07:26:49;;;;;;;;;25.00;22.80;;;;;16.22;52.56;98704.91;5044297;28;8894;-84
2022/12/09 07:29:19;;;;;;;;;19.80;19.60;;;;;16.18;52.27;98701.53;5027860;28;8968;-84
2022/12/09 07:31:49;;;;;;;;;17.40;17.00;;;;;16.18;52.28;98698.88;5060635;28;8855;-84
2022/12/09 07:34:18;;;;;;;;;19.20;18.60;;;;;16.31;51.90;98689.66;5010803;28;8883;-85
2022/12/09 07:36:47;;;;;;;;;20.00;18.00;;;;;16.32;51.82;98678.19;5027764;28;8852;-82
2022/12/09 07:39:18;;;;;;;;;18.00;17.20;;;;;16.41;51.51;98677.00;5008558;28;11392;-84
2022/12/09 07:41:55;;;;;;;;;17.20;14.40;;;;;16.46;50.84;98672.41;5024272;28;8859;-78
2022/12/09 07:44:28;;;;;;;;;19.40;18.60;;;;;16.42;51.53;98670.81;5011167;28;8898;-81
2022/12/09 07:46:58;;;;;;;;;16.00;14.40;;;;;16.56;50.84;98675.56;5028414;28;8863;-82
2022/12/09 07:49:27;;;;;;;;;15.40;15.00;;;;;16.65;50.30;98683.06;5012379;28;8852;-81
2022/12/09 07:51:56;;;;;;;;;22.20;20.20;;;;;16.74;50.43;98689.75;5028349;28;8906;-83
2022/12/09 07:54:25;;;;;;;;;21.00;20.20;;;;;16.82;50.00;98687.69;4995251;28;8965;-85
2022/12/09 07:56:55;;;;;;;;;22.60;21.80;;;;;16.92;50.26;98689.06;5010680;28;8855;-84
2022/12/09 07:59:24;;;;;;;;;23.60;23.20;;;;;17.06;50.02;98691.13;5044894;28;8852;-82
2022/12/09 08:01:53;;;;;;;;;26.80;25.80;;;;;17.10;50.45;98689.22;5043959;28;8945;-84
2022/12/09 08:04:22;;;;;;;;;24.00;22.60;;;;;17.22;49.95;98690.50;5044669;28;8859;-84
2022/12/09 08:06:51;;;;;;;;;26.60;22.00;;;;;17.29;49.76;98699.88;5028109;28;8953;-78
2022/12/09 08:09:21;;;;;;;;;26.60;25.40;;;;;17.23;49.95;98689.59;5022325;28;8863;-78
2022/12/09 08:11:51;;;;;;;;;22.60;21.00;;;;;17.21;50.39;98673.00;5024854;28;8845;-77
2022/12/09 08:14:22;;;;;;;;;23.60;22.60;;;;;17.20;50.24;98673.91;5026155;28;8871;-79
2022/12/09 08:16:50;;;;;;;;;23.40;22.20;;;;;17.20;50.81;98671.25;5022777;28;9683;-80
2022/12/09 08:19:20;;;;;;;;;22.00;21.00;;;;;17.03;50.73;98670.19;5019915;28;8954;-80
2022/12/09 08:21:49;;;;;;;;;23.00;20.80;;;;;16.94;51.99;98666.16;5006861;28;8866;-78
2022/12/09 08:24:22;;;;;;;;;19.20;16.80;;;;;16.99;51.83;98665.09;5036432;28;8856;-77
2022/12/09 08:26:51;;;;;;;;;17.20;17.20;;;;;16.96;52.25;98666.09;5009902;28;8863;-77
2022/12/09 08:29:22;;;;;;;;;22.20;19.00;;;;;16.98;51.47;98661.63;5017463;28;8865;-78
2022/12/09 08:31:51;;;;;;;;;16.80;16.40;;;;;16.94;52.47;98663.53;5010814;28;8824;-79
2022/12/09 08:34:20;;;;;;;;;17.60;16.40;;;;;16.94;51.86;98660.88;5026929;28;9683;-78
2022/12/09 08:36:48;;;;;;;;;13.00;13.00;;;;;17.00;51.96;98651.88;5027563;28;8986;-77
2022/12/09 08:39:17;;;;;;;;;25.00;22.40;;;;;16.85;52.77;98650.72;5027120;28;8875;-80
2022/12/09 08:41:46;;;;;;;;;23.00;22.40;;;;;16.82;53.06;98652.59;5006416;28;8971;-78
2022/12/09 08:44:18;;;;;;;;;18.40;16.80;;;;;16.69;53.14;98657.47;5007332;28;8852;-85
2022/12/09 08:46:50;;;;;;;;;19.20;15.40;;;;;16.65;53.67;98656.75;4986257;28;8883;-83
2022/12/09 08:49:22;;;;;;;;;19.60;19.60;;;;;16.65;52.99;98658.53;4954859;28;8856;-85
2022/12/09 08:51:53;;;;;;;;;8.00;4.00;;;;;16.61;53.18;98657.78;4965362;28;8866;-81
2022/12/09 08:54:22;;;;;;;;;22.60;20.80;;;;;16.63;53.27;98663.84;4928989;28;8897;-82
2022/12/09 08:56:54;;;;;;;;;22.40;17.80;;;;;16.80;52.83;98655.28;4970089;28;8838;-83
2022/12/09 08:59:24;;;;;;;;;18.80;16.80;;;;;16.83;52.50;98649.09;4953221;28;8876;-83
2022/12/09 09:01:54;;;;;;;;;17.60;16.40;;;;;16.88;52.50;98650.59;4952288;28;8986;-84
2022/12/09 09:04:24;;;;;;;;;15.80;15.80;;;;;16.90;52.44;98647.88;4934629;28;8952;-83
2022/12/09 09:06:53;;;;;;;;;22.40;17.80;;;;;16.90;52.65;98634.72;4948709;28;8888;-83
2022/12/09 09:09:23;;;;;;;;;22.80;20.00;;;;;16.90;52.78;98621.56;4933518;28;8928;-85
2022/12/09 09:11:52;;;;;;;;;21.80;21.20;;;;;16.78;53.35;98617.63;4933397;28;8897;-81
2022/12/09 09:14:21;;;;;;;;;25.20;24.20;;;;;16.75;53.09;98617.75;4969212;28;8871;-83
2022/12/09 09:16:50;;;;;;;;;22.80;22.00;;;;;16.75;53.69;98612.50;4953629;28;9017;-84
2022/12/09 09:19:24;;;;;;;;;26.20;22.00;;;;;16.67;53.73;98610.19;5012616;28;8843;-84
2022/12/09 09:21:53;;;;;;;;;29.00;22.80;;;;;16.79;53.37;98602.69;5012920;28;8886;-85
2022/12/09 09:24:25;;;;;;;;;22.00;22.00;;;;;16.70;53.63;98598.66;5049422;28;8894;-82
2022/12/09 09:26:55;;;;;;;;;23.60;22.60;;;;;16.49;54.07;98595.97;5025402;28;8943;-82
2022/12/09 09:29:24;;;;;;;;;28.00;23.80;;;;;16.43;54.78;98590.97;5029688;28;8871;-85
2022/12/09 09:31:53;;;;;;;;;24.80;22.00;;;;;16.28;54.72;98589.78;5029188;28;8875;-83
2022/12/09 09:34:26;;;;;;;;;25.80;24.00;;;;;16.30;54.96;98589.72;5042438;28;9614;-80
2022/12/09 09:36:56;;;;;;;;;22.80;20.00;;;;;16.22;55.50;98584.78;5030468;28;8902;-82
2022/12/09 09:39:25;;;;;;;;;22.00;19.20;;;;;16.34;55.24;98567.63;5029362;28;8883;-83
2022/12/09 09:41:57;;;;;;;;;25.00;22.40;;;;;16.30;55.65;98572.16;4995310;28;8847;-85
2022/12/09 09:44:38;;;;;;;;;20.80;20.80;;;;;16.33;55.84;98579.94;5002252;28;8863;-81
2022/12/09 09:47:15;;;;;;;;;18.20;17.80;;;;;16.49;55.54;98574.91;5028929;28;8854;-84
2022/12/09 09:49:53;;;;;;;;;20.40;19.60;;;;;16.70;54.85;98572.34;5030347;28;8844;-84
2022/12/09 09:52:25;;;;;;;;;21.80;19.60;;;;;16.67;54.74;98570.69;5012569;28;8945;-81
2022/12/09 09:54:56;;;;;;;;;17.80;17.20;;;;;16.69;55.23;98570.59;4989974;28;8887;-84
2022/12/09 09:57:32;;;;;;;;;18.20;17.20;;;;;16.75;54.77;98560.69;5031688;28;9002;-83
2022/12/09 10:00:17;;;;;;;;;16.00;15.60;;;;;16.81;54.33;98556.09;5029482;28;8871;-82
2022/12/09 10:02:57;;;;;;;;;20.40;18.60;;;;;16.80;55.12;98543.84;5028738;28;8922;-84
2022/12/09 10:05:32;;;;;;;;;24.60;23.60;;;;;16.79;54.76;98542.16;5011694;28;8863;-82
2022/12/09 10:08:22;;;;;;;;;19.40;17.60;;;;;16.92;54.50;98540.75;5032148;28;8851;-85
2022/12/09 10:11:07;;;;;;;;;24.00;23.60;;;;;16.79;55.08;98536.88;5030993;28;8834;-82
2022/12/09 10:13:46;;;;;;;;;24.80;22.60;;;;;16.84;55.19;98534.91;5029983;28;8904;-83
2022/12/09 10:16:21;;;;;;;;;20.60;18.60;;;;;17.02;54.56;98538.56;5033863;28;8860;-85
2022/12/09 10:19:06;;;;;;;;;18.20;17.40;;;;;17.03;54.30;98533.22;5032274;28;8887;-81
2022/12/09 10:21:42;;;;;;;;;19.20;18.00;;;;;16.94;54.75;98529.19;5034733;28;8850;-80
2022/12/09 10:24:19;;;;;;;;;17.20;15.40;;;;;17.11;55.01;98531.09;5029257;28;9719;-82
2022/12/09 10:26:57;;;;;;;;;25.60;23.40;;;;;17.12;55.25;98530.16;5046135;28;8919;-83
2022/12/09 10:29:46;;;;;;;;;22.60;21.80;;;;;17.22;55.05;98521.88;5029372;28;8863;-83
2022/12/09 10:32:21;;;;;;;;;29.80;26.60;;;;;17.21;55.17;98526.28;5045966;28;8844;-78
2022/12/09 10:34:52;;;;;;;;;26.40;24.80;;;;;17.22;54.88;98522.75;5014003;28;8887;-82
2022/12/09 10:37:27;;;;;;;;;24.80;22.60;;;;;17.28;54.95;98518.97;5012426;28;8871;-84
2022/12/09 10:40:01;;;;;;;;;26.80;24.60;;;;;17.35;54.81;98507.22;5013215;28;8861;-79
2022/12/09 10:45:21;;;;;;;;;25.80;24.00;;;;;17.47;54.83;98504.03;5008704;28;8974;-81
2022/12/09 10:47:52;;;;;;;;;27.20;25.80;;;;;17.44;55.18;98496.25;5011110;28;8865;-82
2022/12/09 10:50:30;;;;;;;;;23.40;21.60;;;;;17.58;55.11;98492.13;4992575;28;9771;-81
2022/12/09 10:53:06;;;;;;;;;22.40;19.40;;;;;17.57;54.94;98486.03;5041835;28;8914;-79
2022/12/09 10:55:37;;;;;;;;;26.60;22.80;;;;;17.37;55.44;98491.34;5007447;28;9733;-80
2022/12/09 10:58:14;;;;;;;;;25.00;22.40;;;;;17.33;55.84;98495.91;5005855;28;8837;-84
2022/12/09 11:00:43;;;;;;;;;23.40;23.00;;;;;17.31;55.81;98484.56;4988795;28;8863;-83
2022/12/09 11:03:25;;;;;;;;;20.60;18.40;;;;;17.40;55.79;98491.22;4988741;28;8882;-83
2022/12/09 11:05:57;;;;;;;;;23.80;20.80;;;;;17.27;55.93;98480.38;4989623;28;8996;-81
2022/12/09 11:08:28;;;;;;;;;22.80;22.00;;;;;17.25;56.42;98482.22;5010259;28;8863;-81
2022/12/09 11:10:57;;;;;;;;;25.20;24.40;;;;;17.21;56.80;98472.75;5008337;28;8856;-83
2022/12/09 11:13:38;;;;;;;;;27.20;24.60;;;;;17.44;56.49;98462.00;4976268;28;8851;-81
2022/12/09 11:16:07;;;;;;;;;28.40;23.00;;;;;17.42;56.29;98482.31;5005807;28;9143;-82
2022/12/09 11:18:42;;;;;;;;;26.60;26.00;;;;;17.39;56.37;98473.69;5023590;28;8820;-82
2022/12/09 11:21:31;;;;;;;;;23.80;23.00;;;;;17.50;56.32;98480.19;5026473;28;8981;-77
2022/12/09 11:24:02;;;;;;;;;22.80;22.00;;;;;17.29;57.13;98467.97;5026907;28;8913;-82
2022/12/09 11:26:37;;;;;;;;;24.80;22.60;;;;;17.22;57.47;98461.25;5009920;28;8856;-80
2022/12/09 11:29:15;;;;;;;;;25.00;19.60;;;;;17.30;56.71;98453.91;5027339;28;8897;-84
2022/12/09 11:31:44;;;;;;;;;23.00;20.60;;;;;17.11;57.27;98443.34;5027482;28;9005;-81
2022/12/09 11:34:18;;;;;;;;;55.50;44.25;;;;;17.03;57.90;98429.63;5026543;28;9595;-82
2022/12/09 11:36:51;;;;;;;;;32.00;27.20;;;;;17.06;57.87;98430.34;5027919;28;8866;-82
2022/12/09 11:39:27;;;;;;;;;21.80;18.80;;;;;16.95;58.29;98432.59;5028657;28;8995;-86
2022/12/09 11:42:17;;;;;;;;;26.40;23.60;;;;;16.97;58.42;98430.75;5032715;28;8902;-83
2022/12/09 11:44:57;;;;;;;;;25.40;20.20;;;;;17.08;58.80;98425.88;5032970;28;8861;-80
2022/12/09 11:47:31;;;;;;;;;24.80;21.00;;;;;17.05;58.95;98410.22;5026615;28;8877;-81